createdAt,value
2019-04-27T00:02:18.145Z,14.40
2019-04-27T00:04:56.315Z,7.95
2019-04-27T00:07:43.959Z,4.33
2019-04-27T00:10:20.409Z,4.53
2019-04-27T00:12:48.888Z,4.75
2019-04-27T00:15:31.338Z,2.62
2019-04-27T00:18:16.912Z,2.40
2019-04-27T00:20:53.942Z,2.77
2019-04-27T00:23:24.858Z,1.75
2019-04-27T00:25:55.419Z,1.42
2019-04-27T00:28:25.815Z,2.45
2019-04-27T00:30:56.499Z,2.58
2019-04-27T00:33:26.508Z,1.90
2019-04-27T00:36:03.059Z,1.17
2019-04-27T00:38:48.909Z,2.37
2019-04-27T00:41:19.356Z,2.87
2019-04-27T00:43:48.660Z,2.95
2019-04-27T00:46:18.807Z,1.60
2019-04-27T00:48:49.066Z,1.67
2019-04-27T00:51:19.736Z,1.35
2019-04-27T00:53:49.763Z,2.15
2019-04-27T00:56:38.024Z,2.17
2019-04-27T00:59:25.732Z,3.27
2019-04-27T01:02:13.508Z,1.25
2019-04-27T01:04:43.732Z,4.75
2019-04-27T01:07:14.348Z,2.60
2019-04-27T01:09:44.784Z,1.72
2019-04-27T01:12:16.124Z,3.50
2019-04-27T01:14:46.461Z,3.37
2019-04-27T01:17:16.450Z,2.27
2019-04-27T01:19:46.466Z,4.50
2019-04-27T01:22:16.817Z,1.00
2019-04-27T01:24:46.561Z,1.72
2019-04-27T01:27:39.368Z,1.98
2019-04-27T01:30:18.880Z,3.50
2019-04-27T01:32:49.417Z,2.17
2019-04-27T01:35:19.759Z,2.47
2019-04-27T01:37:49.876Z,2.95
2019-04-27T01:40:19.962Z,2.02
2019-04-27T01:42:50.007Z,1.40
2019-04-27T01:45:19.968Z,2.00
2019-04-27T01:47:50.078Z,2.50
2019-04-27T01:50:20.859Z,4.03
2019-04-27T01:52:50.509Z,2.60
2019-04-27T01:55:20.187Z,3.58
2019-04-27T01:57:50.246Z,3.00
2019-04-27T02:00:56.737Z,1.85
2019-04-27T02:03:35.910Z,4.17
2019-04-27T02:06:06.261Z,2.33
2019-04-27T02:08:36.893Z,3.12
2019-04-27T02:11:09.253Z,3.30
2019-04-27T02:13:39.650Z,3.17
2019-04-27T02:16:10.083Z,1.95
2019-04-27T02:18:40.435Z,2.47
2019-04-27T02:21:10.764Z,1.52
2019-04-27T02:23:40.885Z,2.15
2019-04-27T02:26:11.401Z,1.15
2019-04-27T02:28:53.531Z,5.50
2019-04-27T02:31:42.150Z,2.60
2019-04-27T02:34:19.888Z,2.60
2019-04-27T02:36:50.567Z,2.15
2019-04-27T02:39:21.696Z,1.30
2019-04-27T02:41:51.883Z,1.95
2019-04-27T02:44:26.871Z,1.52
2019-04-27T02:46:56.879Z,1.77
2019-04-27T02:49:26.911Z,1.72
2019-04-27T02:52:34.310Z,2.85
2019-04-27T02:55:05.175Z,1.77
2019-04-27T02:57:35.263Z,2.72
2019-04-27T03:00:06.625Z,3.25
2019-04-27T03:02:41.422Z,2.17
2019-04-27T03:05:13.548Z,1.20
2019-04-27T03:07:43.941Z,1.65
2019-04-27T03:10:14.535Z,1.55
2019-04-27T03:12:49.993Z,2.58
2019-04-27T03:15:41.935Z,3.83
2019-04-27T03:18:32.787Z,1.37
2019-04-27T03:21:14.023Z,2.55
2019-04-27T03:23:44.567Z,2.95
2019-04-27T03:26:42.521Z,1.87
2019-04-27T03:29:12.856Z,1.57
2019-04-27T03:31:47.171Z,3.85
2019-04-27T03:34:16.471Z,1.77
2019-04-27T03:36:46.225Z,2.15
2019-04-27T03:39:16.551Z,2.33
2019-04-27T03:41:46.917Z,1.42
2019-04-27T03:44:19.074Z,3.62
2019-04-27T03:46:49.654Z,3.53
2019-04-27T03:49:31.827Z,1.42
2019-04-27T03:52:13.123Z,1.40
2019-04-27T03:54:46.231Z,1.77
2019-04-27T03:57:40.188Z,2.47
2019-04-27T04:00:19.888Z,1.80
2019-04-27T04:02:50.487Z,2.72
2019-04-27T04:05:19.929Z,4.10
2019-04-27T04:07:50.536Z,1.20
2019-04-27T04:10:21.078Z,1.80
2019-04-27T04:13:10.729Z,1.22
2019-04-27T04:15:55.148Z,2.52
2019-04-27T04:18:26.546Z,4.05
2019-04-27T04:20:56.939Z,1.95
2019-04-27T04:23:26.720Z,1.25
2019-04-27T04:25:56.715Z,1.82
2019-04-27T04:28:26.971Z,2.47
2019-04-27T04:30:56.982Z,1.62
2019-04-27T04:33:26.991Z,1.20
2019-04-27T04:35:59.577Z,2.30
2019-04-27T04:38:30.483Z,1.37
2019-04-27T04:41:04.850Z,1.52
2019-04-27T04:43:48.998Z,2.37
2019-04-27T04:46:36.740Z,1.37
2019-04-27T04:49:09.221Z,0.72
2019-04-27T04:51:40.146Z,2.10
2019-04-27T04:54:10.487Z,1.10
2019-04-27T04:56:40.561Z,1.25
2019-04-27T04:59:10.803Z,2.95
2019-04-27T05:01:40.719Z,0.70
2019-04-27T05:04:10.400Z,2.52
2019-04-27T05:06:40.959Z,1.90
2019-04-27T05:09:11.064Z,2.30
2019-04-27T05:11:41.572Z,2.65
2019-04-27T05:14:11.603Z,3.08
2019-04-27T05:16:41.900Z,1.10
2019-04-27T05:19:12.174Z,6.72
2019-04-27T05:21:41.771Z,1.32
2019-04-27T05:24:11.774Z,2.25
2019-04-27T05:26:42.426Z,2.65
2019-04-27T05:29:12.079Z,1.32
2019-04-27T05:31:42.808Z,1.47
2019-04-27T05:34:12.370Z,1.37
2019-04-27T05:36:48.975Z,1.85
2019-04-27T05:39:18.076Z,0.93
2019-04-27T05:41:49.662Z,1.87
2019-04-27T05:44:41.336Z,1.02
2019-04-27T05:47:26.457Z,0.72
2019-04-27T05:50:22.097Z,2.02
2019-04-27T05:52:52.241Z,2.40
2019-04-27T05:55:22.943Z,2.22
2019-04-27T05:57:53.679Z,2.08
2019-04-27T06:00:23.918Z,1.98
2019-04-27T06:02:53.683Z,2.37
2019-04-27T06:05:24.133Z,1.67
2019-04-27T06:07:54.197Z,1.80
2019-04-27T06:10:24.498Z,1.82
2019-04-27T06:12:54.942Z,1.27
2019-04-27T06:15:25.031Z,2.15
2019-04-27T06:17:55.387Z,1.75
2019-04-27T06:20:25.780Z,2.08
2019-04-27T06:22:56.259Z,1.45
2019-04-27T06:25:30.343Z,1.52
2019-04-27T06:27:59.301Z,2.52
2019-04-27T06:30:29.354Z,3.50
2019-04-27T06:33:00.260Z,2.25
2019-04-27T06:35:30.597Z,2.35
2019-04-27T06:38:00.839Z,1.85
2019-04-27T06:40:31.631Z,2.47
2019-04-27T06:43:01.687Z,2.77
2019-04-27T06:45:32.932Z,1.77
2019-04-27T06:48:03.915Z,2.05
2019-04-27T06:50:34.121Z,1.82
2019-04-27T06:53:04.512Z,2.00
2019-04-27T06:55:34.929Z,2.25
2019-04-27T06:58:05.247Z,1.32
2019-04-27T07:00:35.567Z,2.50
2019-04-27T07:03:05.510Z,1.30
2019-04-27T07:05:35.473Z,2.83
2019-04-27T07:08:05.119Z,5.05
2019-04-27T07:10:34.856Z,1.70
2019-04-27T07:13:05.391Z,1.80
2019-04-27T07:15:35.585Z,2.35
2019-04-27T07:18:05.623Z,1.40
2019-04-27T07:20:35.926Z,2.33
2019-04-27T07:23:05.562Z,2.92
2019-04-27T07:25:35.589Z,1.77
2019-04-27T07:28:06.270Z,2.67
2019-04-27T07:30:36.598Z,1.30
2019-04-27T07:33:08.607Z,2.20
2019-04-27T07:35:39.414Z,1.92
2019-04-27T07:38:09.931Z,2.37
2019-04-27T07:40:42.018Z,3.35
2019-04-27T07:43:22.561Z,1.25
2019-04-27T07:45:52.163Z,1.87
2019-04-27T07:48:22.582Z,1.10
2019-04-27T07:50:52.779Z,2.25
2019-04-27T07:53:22.574Z,1.65
2019-04-27T07:55:53.261Z,3.30
2019-04-27T07:58:23.707Z,2.00
2019-04-27T08:00:54.084Z,1.05
2019-04-27T08:03:23.722Z,2.25
2019-04-27T08:05:53.736Z,1.80
2019-04-27T08:08:24.186Z,1.40
2019-04-27T08:10:54.606Z,3.20
2019-04-27T08:13:24.288Z,3.20
2019-04-27T08:15:54.698Z,1.60
2019-04-27T08:18:25.260Z,1.70
2019-04-27T08:20:57.004Z,2.50
2019-04-27T08:23:29.373Z,2.20
2019-04-27T08:25:58.973Z,4.80
2019-04-27T08:28:45.963Z,1.70
2019-04-27T08:31:29.463Z,1.65
2019-04-27T08:34:00.201Z,1.70
2019-04-27T08:36:30.194Z,1.10
2019-04-27T08:39:00.303Z,1.22
2019-04-27T08:41:31.202Z,1.27
2019-04-27T08:44:01.674Z,2.90
2019-04-27T08:46:32.419Z,2.05
2019-04-27T08:49:02.341Z,1.40
2019-04-27T08:51:32.337Z,2.27
2019-04-27T08:54:02.380Z,1.50
2019-04-27T08:56:31.690Z,2.87
2019-04-27T08:59:02.085Z,1.72
2019-04-27T09:01:31.385Z,1.67
2019-04-27T09:04:01.539Z,1.50
2019-04-27T09:06:32.128Z,1.42
2019-04-27T09:09:09.352Z,2.55
2019-04-27T09:12:00.163Z,2.52
2019-04-27T09:14:38.997Z,3.42
2019-04-27T09:17:23.199Z,2.75
2019-04-27T09:20:00.981Z,1.07
2019-04-27T09:22:31.720Z,1.22
2019-04-27T09:25:02.052Z,1.52
2019-04-27T09:27:32.415Z,1.67
2019-04-27T09:30:02.593Z,4.60
2019-04-27T09:32:32.641Z,3.20
2019-04-27T09:35:02.779Z,0.60
2019-04-27T09:37:32.459Z,1.52
2019-04-27T09:40:02.957Z,0.75
2019-04-27T09:42:33.594Z,0.70
2019-04-27T09:45:03.644Z,0.72
2019-04-27T09:47:34.045Z,1.40
2019-04-27T09:50:05.755Z,0.60
2019-04-27T09:52:36.192Z,0.85
2019-04-27T09:55:06.569Z,0.95
2019-04-27T09:57:37.991Z,1.15
2019-04-27T10:00:10.813Z,0.30
2019-04-27T10:02:41.326Z,1.50
2019-04-27T10:05:11.923Z,0.40
2019-04-27T10:07:42.414Z,0.68
2019-04-27T10:10:12.391Z,0.60
2019-04-27T10:12:42.683Z,0.50
2019-04-27T10:15:13.315Z,1.57
2019-04-27T10:17:43.550Z,0.70
2019-04-27T10:20:13.910Z,1.12
2019-04-27T10:22:43.788Z,0.57
2019-04-27T10:25:24.576Z,0.72
2019-04-27T10:28:00.442Z,0.57
2019-04-27T10:30:30.568Z,0.75
2019-04-27T10:33:01.098Z,0.55
2019-04-27T10:35:30.963Z,1.52
2019-04-27T10:38:00.712Z,0.65
2019-04-27T10:40:30.744Z,1.30
2019-04-27T10:43:01.569Z,0.50
2019-04-27T10:45:32.020Z,0.50
2019-04-27T10:48:01.766Z,0.72
2019-04-27T10:50:32.478Z,0.53
2019-04-27T10:53:02.530Z,0.72
2019-04-27T10:55:33.302Z,1.82
2019-04-27T10:58:03.416Z,0.90
2019-04-27T11:00:38.882Z,0.60
2019-04-27T11:03:09.709Z,1.40
2019-04-27T11:06:05.998Z,0.40
2019-04-27T11:08:36.195Z,0.75
2019-04-27T11:11:06.815Z,1.20
2019-04-27T11:13:38.331Z,1.25
2019-04-27T11:16:08.956Z,0.98
2019-04-27T11:18:39.842Z,0.68
2019-04-27T11:21:10.436Z,1.40
2019-04-27T11:23:40.889Z,1.12
2019-04-27T11:26:10.209Z,0.60
2019-04-27T11:28:42.715Z,0.90
2019-04-27T11:31:12.654Z,1.62
2019-04-27T11:33:43.051Z,0.65
2019-04-27T11:36:32.655Z,1.60
2019-04-27T11:39:03.896Z,0.95
2019-04-27T11:41:34.711Z,1.82
2019-04-27T11:44:04.967Z,1.32
2019-04-27T11:46:35.091Z,1.57
2019-04-27T11:49:04.532Z,1.47
2019-04-27T11:51:36.553Z,1.20
2019-04-27T11:54:07.533Z,3.62
2019-04-27T11:56:38.312Z,1.22
2019-04-27T11:59:08.547Z,3.33
2019-04-27T12:01:38.615Z,1.67
2019-04-27T12:04:08.978Z,2.55
2019-04-27T12:06:39.093Z,1.60
2019-04-27T12:09:09.938Z,0.98
2019-04-27T12:11:40.429Z,5.42
2019-04-27T12:14:10.073Z,3.60
2019-04-27T12:16:39.770Z,1.35
2019-04-27T12:19:09.913Z,3.50
2019-04-27T12:21:40.324Z,2.40
2019-04-27T12:24:10.776Z,1.47
2019-04-27T12:27:02.611Z,5.87
2019-04-27T12:32:27.257Z,1.82
2019-04-27T12:34:57.838Z,2.22
2019-04-27T12:37:27.911Z,2.35
2019-04-27T12:39:58.376Z,3.10
2019-04-27T12:42:28.981Z,5.58
2019-04-27T12:44:59.162Z,1.95
2019-04-27T12:47:29.328Z,3.58
2019-04-27T12:49:59.695Z,2.00
2019-04-27T12:52:30.179Z,3.15
2019-04-27T12:55:12.952Z,2.05
2019-04-27T12:57:52.536Z,1.62
2019-04-27T13:00:28.552Z,3.10
2019-04-27T13:02:58.403Z,2.15
2019-04-27T13:05:28.430Z,3.12
2019-04-27T13:07:59.177Z,1.85
2019-04-27T13:10:29.613Z,18.15
2019-04-27T13:12:59.724Z,2.92
2019-04-27T13:15:29.768Z,2.33
2019-04-27T13:17:59.957Z,2.65
2019-04-27T13:20:30.072Z,2.60
2019-04-27T13:23:01.835Z,2.15
2019-04-27T13:25:32.725Z,4.85
2019-04-27T13:28:03.192Z,3.30
2019-04-27T13:30:33.577Z,3.10
2019-04-27T13:33:22.596Z,2.90
2019-04-27T13:35:52.698Z,5.53
2019-04-27T13:38:23.121Z,4.00
2019-04-27T13:41:07.507Z,2.20
2019-04-27T13:43:38.202Z,2.47
2019-04-27T13:46:30.771Z,1.87
2019-04-27T13:49:38.243Z,1.50
2019-04-27T13:52:20.597Z,2.00
2019-04-27T13:54:53.363Z,1.77
2019-04-27T13:57:23.789Z,2.10
2019-04-27T13:59:54.320Z,3.00
2019-04-27T14:02:26.593Z,2.45
2019-04-27T14:04:56.606Z,1.45
2019-04-27T14:07:27.316Z,1.32
2019-04-27T14:09:59.927Z,2.25
2019-04-27T14:12:29.922Z,1.75
2019-04-27T14:14:59.925Z,0.88
2019-04-27T14:17:30.686Z,2.02
2019-04-27T14:20:00.411Z,1.47
2019-04-27T14:22:31.628Z,2.20
2019-04-27T14:25:02.151Z,1.00
2019-04-27T14:27:40.424Z,0.62
2019-04-27T14:30:12.521Z,1.55
2019-04-27T14:32:43.206Z,1.50
2019-04-27T14:35:13.534Z,1.50
2019-04-27T14:37:44.005Z,0.93
2019-04-27T14:40:14.571Z,1.10
2019-04-27T14:42:44.806Z,0.70
2019-04-27T14:45:14.882Z,1.10
2019-04-27T14:47:44.609Z,1.40
2019-04-27T14:50:14.466Z,0.78
2019-04-27T14:52:44.547Z,1.15
2019-04-27T14:55:14.854Z,0.40
2019-04-27T14:57:45.283Z,1.70
2019-04-27T15:00:19.163Z,1.12
2019-04-27T15:02:49.559Z,7.40
2019-04-27T15:05:19.548Z,4.37
2019-04-27T15:07:50.065Z,8.03
2019-04-27T15:10:20.370Z,2.90
2019-04-27T15:12:50.465Z,4.15
2019-04-27T15:15:21.401Z,3.77
2019-04-27T15:17:52.403Z,4.22
2019-04-27T15:20:30.660Z,4.55
2019-04-27T15:23:00.333Z,3.67
2019-04-27T15:25:35.076Z,2.98
2019-04-27T15:28:07.389Z,3.12
2019-04-27T15:31:06.748Z,10.58
2019-04-27T15:34:02.181Z,4.87
2019-04-27T15:36:52.914Z,1.80
2019-04-27T15:39:41.783Z,5.78
2019-04-27T15:42:13.622Z,5.42
2019-04-27T15:44:44.239Z,3.10
2019-04-27T15:47:14.685Z,3.30
2019-04-27T15:49:50.331Z,4.75
2019-04-27T15:52:17.943Z,4.10
2019-04-27T15:54:48.203Z,2.98
2019-04-27T15:57:19.148Z,4.20
2019-04-27T15:59:50.428Z,2.60
2019-04-27T16:02:20.138Z,1.25
2019-04-27T16:04:53.264Z,1.77
2019-04-27T16:07:25.222Z,2.45
2019-04-27T16:09:59.150Z,1.70
2019-04-27T16:12:28.430Z,1.70
2019-04-27T16:14:59.003Z,2.05
2019-04-27T16:17:31.894Z,1.17
2019-04-27T16:20:00.563Z,1.67
2019-04-27T16:22:30.570Z,2.37
2019-04-27T16:25:00.410Z,3.42
2019-04-27T16:27:34.231Z,2.05
2019-04-27T16:30:09.717Z,1.47
2019-04-27T16:32:35.495Z,2.58
2019-04-27T16:35:05.425Z,3.25
2019-04-27T16:37:56.452Z,4.55
2019-04-27T16:40:25.687Z,2.92
2019-04-27T16:42:56.127Z,8.10
2019-04-27T16:45:27.190Z,5.28
2019-04-27T16:48:01.792Z,4.37
2019-04-27T16:50:30.267Z,7.22
2019-04-27T16:53:01.237Z,4.70
2019-04-27T16:55:34.099Z,2.55
2019-04-27T16:58:03.551Z,3.83
2019-04-27T17:00:33.923Z,4.92
2019-04-27T17:03:06.770Z,2.45
2019-04-27T17:05:35.803Z,4.25
2019-04-27T17:08:14.356Z,2.70
2019-04-27T17:10:39.095Z,3.85
2019-04-27T17:13:14.292Z,1.60
2019-04-27T17:16:00.727Z,2.22
2019-04-27T17:18:35.586Z,2.25
2019-04-27T17:21:18.431Z,3.17
2019-04-27T17:23:38.773Z,3.00
2019-04-27T17:26:20.499Z,1.50
2019-04-27T17:28:51.627Z,3.00
2019-04-27T17:31:24.066Z,4.12
2019-04-27T17:34:00.716Z,3.58
2019-04-27T17:36:31.210Z,3.45
2019-04-27T17:39:00.947Z,3.15
2019-04-27T17:41:31.446Z,5.97
2019-04-27T17:44:01.579Z,2.75
2019-04-27T17:46:32.097Z,2.50
2019-04-27T17:49:02.637Z,3.70
2019-04-27T17:51:35.290Z,3.87
2019-04-27T17:54:08.056Z,2.25
2019-04-27T17:56:43.022Z,2.20
2019-04-27T17:59:10.248Z,3.95
2019-04-27T18:01:40.399Z,4.70
2019-04-27T18:04:10.689Z,4.85
2019-04-27T18:06:42.569Z,2.65
2019-04-27T18:09:19.178Z,3.75
2019-04-27T18:11:50.405Z,3.80
2019-04-27T18:14:21.000Z,6.55
2019-04-27T18:17:12.197Z,4.20
2019-04-27T18:19:47.605Z,3.45
2019-04-27T18:22:19.668Z,3.15
2019-04-27T18:25:06.679Z,5.72
2019-04-27T18:27:58.458Z,3.50
2019-04-27T18:30:46.800Z,4.47
2019-04-27T18:33:18.441Z,5.75
2019-04-27T18:35:49.128Z,7.70
2019-04-27T18:38:19.850Z,11.22
2019-04-27T18:40:50.074Z,4.55
2019-04-27T18:43:20.544Z,9.68
2019-04-27T18:45:50.192Z,3.83
2019-04-27T18:48:52.511Z,5.72
2019-04-27T18:51:44.951Z,5.78
2019-04-27T18:54:15.343Z,8.65
2019-04-27T18:56:47.798Z,3.67
2019-04-27T18:59:18.693Z,6.97
2019-04-27T19:01:48.937Z,13.70
2019-04-27T19:04:19.244Z,11.40
2019-04-27T19:06:49.580Z,9.25
2019-04-27T19:09:20.115Z,25.00
2019-04-27T19:11:56.127Z,23.42
2019-04-27T19:14:23.549Z,17.45
2019-04-27T19:16:53.686Z,10.38
2019-04-27T19:19:24.610Z,33.48
2019-04-27T19:21:55.060Z,10.70
2019-04-27T19:24:25.200Z,9.55
2019-04-27T19:27:20.910Z,11.12
2019-04-27T19:29:52.998Z,8.40
2019-04-27T19:32:23.761Z,5.50
2019-04-27T19:34:53.583Z,7.72
2019-04-27T19:37:23.930Z,6.65
2019-04-27T19:39:53.942Z,7.42
2019-04-27T19:42:24.673Z,6.28
2019-04-27T19:44:54.705Z,8.18
2019-04-27T19:47:24.807Z,7.95
2019-04-27T19:49:54.966Z,4.22
2019-04-27T19:52:25.077Z,6.87
2019-04-27T19:54:55.245Z,6.87
2019-04-27T19:57:34.943Z,4.78
2019-04-27T19:59:59.389Z,5.40
2019-04-27T20:02:30.088Z,5.28
2019-04-27T20:05:04.256Z,5.70
2019-04-27T20:07:34.968Z,5.78
2019-04-27T20:10:08.811Z,5.87
2019-04-27T20:12:38.625Z,3.98
2019-04-27T20:15:09.556Z,3.50
2019-04-27T20:17:40.927Z,2.72
2019-04-27T20:20:11.672Z,1.42
2019-04-27T20:22:41.935Z,1.62
2019-04-27T20:25:12.274Z,3.55
2019-04-27T20:27:48.842Z,2.08
2019-04-27T20:30:15.179Z,16.02
2019-04-27T20:32:45.580Z,7.15
2019-04-27T20:35:15.672Z,17.02
2019-04-27T20:37:45.736Z,6.47
2019-04-27T20:40:15.875Z,4.83
2019-04-27T20:42:45.816Z,6.83
2019-04-27T20:45:15.506Z,4.58
2019-04-27T20:47:45.720Z,6.03
2019-04-27T20:50:15.144Z,9.00
2019-04-27T20:52:53.415Z,5.50
2019-04-27T20:55:23.742Z,10.32
2019-04-27T20:58:01.641Z,7.60
2019-04-27T21:00:25.555Z,5.90
2019-04-27T21:03:19.706Z,5.17
2019-04-27T21:06:05.689Z,4.85
2019-04-27T21:08:37.206Z,5.12
2019-04-27T21:11:07.253Z,7.95
2019-04-27T21:13:37.565Z,7.62
2019-04-27T21:16:07.839Z,4.95
2019-04-27T21:18:38.232Z,3.08
2019-04-27T21:21:08.765Z,4.30
2019-04-27T21:23:38.466Z,7.58
2019-04-27T21:26:08.902Z,4.12
2019-04-27T21:28:39.144Z,4.85
2019-04-27T21:31:12.737Z,2.85
2019-04-27T21:33:43.059Z,4.28
2019-04-27T21:36:13.350Z,6.87
2019-04-27T21:38:43.718Z,3.47
2019-04-27T21:41:13.910Z,8.70
2019-04-27T21:43:43.939Z,4.78
2019-04-27T21:46:13.991Z,2.20
2019-04-27T21:48:44.337Z,5.22
2019-04-27T21:51:14.744Z,8.45
2019-04-27T21:54:10.123Z,5.12
2019-04-27T21:56:41.641Z,3.30
2019-04-27T21:59:12.184Z,5.05
2019-04-27T22:01:42.807Z,2.30
2019-04-27T22:04:12.462Z,3.60
2019-04-27T22:06:42.833Z,3.92
2019-04-27T22:09:14.607Z,2.83
2019-04-27T22:11:44.568Z,4.25
2019-04-27T22:14:14.865Z,3.10
2019-04-27T22:16:45.499Z,2.33
2019-04-27T22:19:15.873Z,3.62
2019-04-27T22:21:46.357Z,1.47
2019-04-27T22:24:33.180Z,2.27
2019-04-27T22:27:02.853Z,3.10
2019-04-27T22:29:32.916Z,2.60
2019-04-27T22:32:02.902Z,6.72
2019-04-27T22:34:52.383Z,6.12
2019-04-27T22:37:22.061Z,4.70
2019-04-27T22:40:11.984Z,3.22
2019-04-27T22:43:06.464Z,4.20
2019-04-27T22:45:36.939Z,4.70
2019-04-27T22:48:06.994Z,3.83
2019-04-27T22:50:37.027Z,5.75
2019-04-27T22:53:08.470Z,5.25
2019-04-27T22:55:57.438Z,3.80
2019-04-27T22:58:27.989Z,5.22
2019-04-27T23:01:14.162Z,3.58
2019-04-27T23:03:45.048Z,5.33
2019-04-27T23:06:15.405Z,3.10
2019-04-27T23:08:45.122Z,6.60
2019-04-27T23:11:15.551Z,4.37
2019-04-27T23:13:46.546Z,2.50
2019-04-27T23:16:18.557Z,1.87
2019-04-27T23:18:48.152Z,8.00
2019-04-27T23:21:18.179Z,4.40
2019-04-27T23:23:48.779Z,5.15
2019-04-27T23:26:21.134Z,5.70
2019-04-27T23:28:51.661Z,5.50
2019-04-27T23:31:33.650Z,4.87
2019-04-27T23:34:03.693Z,4.10
2019-04-27T23:36:33.336Z,4.42
2019-04-27T23:39:04.042Z,6.28
2019-04-27T23:41:34.702Z,5.17
2019-04-27T23:44:04.527Z,6.33
2019-04-27T23:46:35.129Z,3.95
2019-04-27T23:49:05.466Z,7.67
2019-04-27T23:51:46.858Z,5.33
2019-04-27T23:54:17.091Z,3.80
2019-04-27T23:56:47.130Z,4.30
2019-04-27T23:59:24.706Z,2.58
